createdAt,value
2023-01-10T00:00:01.505Z,6.3
2023-01-10T00:01:01.348Z,6.4
2023-01-10T00:02:01.381Z,6.3
2023-01-10T00:03:01.475Z,6.3
2023-01-10T00:04:01.467Z,6.3
2023-01-10T00:05:01.395Z,6.3
2023-01-10T00:06:01.335Z,6.3
2023-01-10T00:07:02.401Z,6.3
2023-01-10T00:08:02.241Z,6.3
2023-01-10T00:09:02.285Z,6.3
2023-01-10T00:10:02.150Z,6.3
2023-01-10T00:11:02.180Z,6.2
2023-01-10T00:12:02.031Z,6.3
2023-01-10T00:13:02.035Z,6.3
2023-01-10T00:14:01.920Z,6.3
2023-01-10T00:15:01.891Z,6.3
2023-01-10T00:16:01.803Z,6.2
2023-01-10T00:17:01.963Z,6.3
2023-01-10T00:18:01.877Z,6.3
2023-01-10T00:19:01.827Z,6.3
2023-01-10T00:20:01.660Z,6.3
2023-01-10T00:21:01.716Z,6.2
2023-01-10T00:22:01.570Z,6.3
2023-01-10T00:23:01.554Z,6.3
2023-01-10T00:24:01.372Z,6.2
2023-01-10T00:25:01.394Z,6.3
2023-01-10T00:26:02.346Z,6.3
2023-01-10T00:27:02.144Z,6.3
2023-01-10T00:28:02.127Z,6.3
2023-01-10T00:29:02.009Z,6.3
2023-01-10T00:30:01.959Z,6.2
2023-01-10T00:31:02.079Z,6.2
2023-01-10T00:32:02.265Z,6.3
2023-01-10T00:33:02.112Z,6.3
2023-01-10T00:34:02.162Z,6.3
2023-01-10T00:35:01.995Z,6.3
2023-01-10T00:36:01.944Z,6.2
2023-01-10T00:37:01.988Z,6.2
2023-01-10T00:38:01.842Z,6.2
2023-01-10T00:39:01.784Z,6.2
2023-01-10T00:40:01.833Z,6.1
2023-01-10T00:41:01.630Z,6.2
2023-01-10T00:42:01.793Z,6.1
2023-01-10T00:43:01.615Z,6.2
2023-01-10T00:44:01.614Z,6.2
2023-01-10T00:45:01.384Z,6.2
2023-01-10T00:46:01.472Z,6.2
2023-01-10T00:47:02.408Z,6.2
2023-01-10T00:48:02.333Z,6.2
2023-01-10T00:49:02.182Z,6.1
2023-01-10T00:50:02.118Z,6.2
2023-01-10T00:51:02.154Z,6.1
2023-01-10T00:52:01.947Z,6.1
2023-01-10T00:53:01.848Z,6.1
2023-01-10T00:54:01.936Z,6.1
2023-01-10T00:55:01.780Z,6.1
2023-01-10T00:56:01.732Z,6.1
2023-01-10T00:57:01.719Z,6.1
2023-01-10T00:58:01.516Z,6.1
2023-01-10T00:59:01.553Z,6.1
2023-01-10T01:00:01.452Z,6.1
2023-01-10T01:01:01.376Z,6.2
2023-01-10T01:02:02.397Z,6.1
2023-01-10T01:03:01.361Z,6.1
2023-01-10T01:04:02.371Z,6.1
2023-01-10T01:05:02.270Z,6.1
2023-01-10T01:06:02.271Z,6.2
2023-01-10T01:07:02.118Z,6.1
2023-01-10T01:08:02.085Z,6.1
2023-01-10T01:09:01.988Z,6
2023-01-10T01:10:01.926Z,6
2023-01-10T01:11:01.936Z,6.1
2023-01-10T01:12:01.772Z,6
2023-01-10T01:13:01.856Z,6
2023-01-10T01:14:01.898Z,6
2023-01-10T01:15:01.755Z,5.9
2023-01-10T01:16:01.750Z,6
2023-01-10T01:17:01.885Z,5.9
2023-01-10T01:18:01.905Z,6
2023-01-10T01:19:01.723Z,6
2023-01-10T01:20:01.739Z,6
2023-01-10T01:21:01.606Z,5.9
2023-01-10T01:22:01.609Z,6
2023-01-10T01:23:01.404Z,6
2023-01-10T01:24:01.477Z,5.9
2023-01-10T01:25:02.366Z,5.9
2023-01-10T01:26:02.249Z,5.9
2023-01-10T01:27:02.299Z,5.9
2023-01-10T01:28:02.149Z,5.8
2023-01-10T01:29:02.182Z,5.9
2023-01-10T01:30:02.037Z,5.8
2023-01-10T01:31:02.031Z,5.9
2023-01-10T01:32:02.288Z,5.9
2023-01-10T01:33:02.352Z,5.9
2023-01-10T01:34:02.236Z,5.9
2023-01-10T01:35:02.298Z,5.9
2023-01-10T01:36:02.112Z,5.9
2023-01-10T01:37:02.156Z,5.9
2023-01-10T01:38:01.977Z,5.9
2023-01-10T01:39:01.950Z,5.8
2023-01-10T01:40:01.947Z,5.8
2023-01-10T01:41:01.785Z,5.8
2023-01-10T01:42:01.686Z,5.7
2023-01-10T01:43:01.682Z,5.7
2023-01-10T01:44:01.506Z,5.8
2023-01-10T01:45:01.497Z,5.8
2023-01-10T01:46:01.410Z,5.8
2023-01-10T01:47:01.382Z,5.9
2023-01-10T01:48:01.417Z,5.8
2023-01-10T01:49:02.314Z,5.8
2023-01-10T01:50:02.246Z,5.7
2023-01-10T01:51:02.244Z,5.8
2023-01-10T01:52:02.097Z,5.7
2023-01-10T01:53:02.135Z,5.8
2023-01-10T01:54:01.991Z,5.8
2023-01-10T01:55:01.940Z,5.7
2023-01-10T01:56:01.942Z,5.7
2023-01-10T01:57:01.810Z,5.8
2023-01-10T01:58:01.765Z,5.8
2023-01-10T01:59:01.993Z,5.8
2023-01-10T02:00:01.785Z,5.8
2023-01-10T02:01:01.725Z,5.8
2023-01-10T02:02:01.770Z,5.8
2023-01-10T02:03:03.279Z,5.8
2023-01-10T02:04:01.368Z,5.9
2023-01-10T02:05:01.407Z,5.8
2023-01-10T02:06:02.406Z,5.9
2023-01-10T02:07:02.266Z,5.8
2023-01-10T02:08:02.326Z,5.8
2023-01-10T02:09:02.124Z,5.8
2023-01-10T02:10:02.157Z,5.8
2023-01-10T02:11:01.962Z,5.8
2023-01-10T02:12:01.904Z,5.7
2023-01-10T02:13:01.877Z,5.8
2023-01-10T02:14:01.776Z,5.8
2023-01-10T02:15:01.713Z,5.8
2023-01-10T02:16:01.749Z,5.8
2023-01-10T02:17:01.516Z,5.7
2023-01-10T02:18:01.468Z,5.8
2023-01-10T02:19:01.363Z,5.7
2023-01-10T02:20:02.342Z,5.7
2023-01-10T02:21:02.218Z,5.7
2023-01-10T02:22:02.288Z,5.7
2023-01-10T02:23:02.129Z,5.7
2023-01-10T02:24:02.164Z,5.7
2023-01-10T02:25:01.986Z,5.7
2023-01-10T02:26:01.898Z,5.7
2023-01-10T02:27:01.937Z,5.7
2023-01-10T02:28:01.772Z,5.7
2023-01-10T02:29:01.769Z,5.7
2023-01-10T02:30:01.679Z,5.7
2023-01-10T02:31:01.678Z,5.7
2023-01-10T02:32:01.395Z,5.6
2023-01-10T02:33:05.258Z,5.7
2023-01-10T02:34:01.411Z,5.6
2023-01-10T02:35:01.458Z,5.7
2023-01-10T02:36:02.366Z,5.7
2023-01-10T02:37:02.165Z,5.7
2023-01-10T02:38:02.207Z,5.6
2023-01-10T02:39:02.045Z,5.7
2023-01-10T02:40:02.108Z,5.7
2023-01-10T02:41:01.940Z,5.7
2023-01-10T02:42:01.858Z,5.6
2023-01-10T02:43:01.894Z,5.6
2023-01-10T02:44:01.721Z,5.7
2023-01-10T02:45:01.872Z,5.7
2023-01-10T02:46:01.638Z,5.6
2023-01-10T02:47:01.680Z,5.7
2023-01-10T02:48:01.689Z,5.7
2023-01-10T02:49:01.510Z,5.7
2023-01-10T02:50:01.565Z,5.7
2023-01-10T02:51:01.362Z,5.7
2023-01-10T02:52:01.403Z,5.7
2023-01-10T02:53:02.344Z,5.7
2023-01-10T02:54:02.221Z,5.7
2023-01-10T02:55:02.213Z,5.7
2023-01-10T02:56:02.067Z,5.7
2023-01-10T02:57:02.149Z,5.7
2023-01-10T02:58:01.961Z,5.7
2023-01-10T02:59:01.884Z,5.7
2023-01-10T03:00:01.903Z,5.7
2023-01-10T03:01:01.757Z,5.7
2023-01-10T03:02:01.625Z,5.8
2023-01-10T03:03:01.631Z,5.8
2023-01-10T03:04:01.431Z,5.8
2023-01-10T03:05:01.478Z,5.7
2023-01-10T03:06:01.350Z,5.7
2023-01-10T03:07:02.349Z,5.7
2023-01-10T03:08:02.203Z,5.7
2023-01-10T03:09:02.252Z,5.7
2023-01-10T03:10:02.036Z,5.7
2023-01-10T03:11:02.039Z,5.7
2023-01-10T03:12:01.883Z,5.7
2023-01-10T03:13:01.765Z,5.6
2023-01-10T03:14:01.776Z,5.7
2023-01-10T03:15:01.644Z,5.7
2023-01-10T03:16:01.640Z,5.7
2023-01-10T03:17:02.387Z,5.7
2023-01-10T03:18:01.440Z,5.7
2023-01-10T03:19:01.474Z,5.6
2023-01-10T03:20:02.370Z,5.7
2023-01-10T03:21:02.294Z,5.7
2023-01-10T03:22:02.311Z,5.7
2023-01-10T03:23:02.143Z,5.7
2023-01-10T03:24:02.214Z,5.6
2023-01-10T03:25:02.020Z,5.7
2023-01-10T03:26:02.049Z,5.6
2023-01-10T03:27:02.318Z,5.7
2023-01-10T03:28:01.872Z,5.6
2023-01-10T03:29:01.916Z,5.6
2023-01-10T03:30:01.757Z,5.6
2023-01-10T03:31:01.694Z,5.6
2023-01-10T03:32:01.476Z,5.7
2023-01-10T03:33:01.495Z,5.7
2023-01-10T03:34:01.352Z,5.7
2023-01-10T03:35:02.431Z,5.7
2023-01-10T03:36:02.252Z,5.7
2023-01-10T03:37:02.268Z,5.6
2023-01-10T03:38:02.132Z,5.7
2023-01-10T03:39:02.109Z,5.7
2023-01-10T03:40:02.002Z,5.7
2023-01-10T03:41:01.915Z,5.7
2023-01-10T03:42:01.898Z,5.7
2023-01-10T03:43:01.835Z,5.7
2023-01-10T03:44:01.814Z,5.6
2023-01-10T03:45:01.713Z,5.7
2023-01-10T03:46:01.579Z,5.7
2023-01-10T03:47:01.404Z,5.7
2023-01-10T03:48:01.367Z,5.7
2023-01-10T03:49:02.308Z,5.7
2023-01-10T03:50:02.239Z,5.7
2023-01-10T03:51:02.202Z,5.6
2023-01-10T03:52:02.126Z,5.6
2023-01-10T03:53:02.067Z,5.7
2023-01-10T03:54:01.989Z,5.7
2023-01-10T03:55:02.144Z,5.5
2023-01-10T03:56:01.975Z,5.6
2023-01-10T03:57:02.707Z,5.7
2023-01-10T03:58:01.560Z,5.6
2023-01-10T03:59:01.509Z,5.7
2023-01-10T04:00:01.384Z,5.6
2023-01-10T04:01:01.465Z,5.7
2023-01-10T04:02:02.444Z,5.6
2023-01-10T04:03:01.600Z,5.6
2023-01-10T04:04:01.521Z,5.6
2023-01-10T04:05:01.448Z,5.6
2023-01-10T04:06:01.412Z,5.6
2023-01-10T04:07:01.375Z,5.7
2023-01-10T04:08:02.345Z,5.6
2023-01-10T04:09:02.230Z,5.6
2023-01-10T04:10:02.202Z,5.6
2023-01-10T04:11:02.114Z,5.6
2023-01-10T04:12:02.082Z,5.6
2023-01-10T04:13:01.988Z,5.6
2023-01-10T04:14:01.929Z,5.6
2023-01-10T04:15:01.916Z,5.5
2023-01-10T04:16:01.812Z,5.6
2023-01-10T04:17:01.885Z,5.5
2023-01-10T04:18:01.816Z,5.5
2023-01-10T04:19:01.744Z,5.5
2023-01-10T04:20:01.699Z,5.5
2023-01-10T04:21:01.548Z,5.5
2023-01-10T04:22:01.482Z,5.5
2023-01-10T04:23:01.376Z,5.6
2023-01-10T04:24:01.350Z,5.5
2023-01-10T04:25:02.299Z,5.5
2023-01-10T04:26:02.226Z,5.5
2023-01-10T04:27:02.207Z,5.5
2023-01-10T04:28:02.113Z,5.5
2023-01-10T04:29:02.162Z,5.5
2023-01-10T04:30:02.079Z,5.5
2023-01-10T04:31:02.012Z,5.5
2023-01-10T04:32:01.888Z,5.5
2023-01-10T04:33:01.825Z,5.5
2023-01-10T04:34:01.816Z,5.5
2023-01-10T04:35:01.701Z,5.5
2023-01-10T04:36:01.663Z,5.5
2023-01-10T04:37:01.556Z,5.5
2023-01-10T04:38:01.507Z,5.5
2023-01-10T04:39:01.401Z,5.5
2023-01-10T04:40:01.379Z,5.5
2023-01-10T04:41:02.321Z,5.5
2023-01-10T04:42:02.217Z,5.5
2023-01-10T04:43:02.186Z,5.5
2023-01-10T04:44:02.089Z,5.5
2023-01-10T04:45:02.052Z,5.5
2023-01-10T04:46:01.974Z,5.5
2023-01-10T04:47:01.972Z,5.4
2023-01-10T04:48:01.979Z,5.4
2023-01-10T04:49:01.875Z,5.5
2023-01-10T04:50:01.777Z,5.5
2023-01-10T04:51:01.715Z,5.4
2023-01-10T04:52:01.655Z,5.4
2023-01-10T04:53:01.588Z,5.4
2023-01-10T04:54:01.455Z,5.5
2023-01-10T04:55:01.432Z,5.5
2023-01-10T04:56:01.327Z,5.4
2023-01-10T04:57:02.364Z,5.4
2023-01-10T04:58:02.291Z,5.4
2023-01-10T04:59:02.243Z,5.4
2023-01-10T05:00:02.149Z,5.4
2023-01-10T05:01:02.148Z,5.4
2023-01-10T05:02:01.788Z,5.4
2023-01-10T05:03:01.953Z,5.4
2023-01-10T05:04:01.974Z,5.4
2023-01-10T05:05:01.925Z,5.4
2023-01-10T05:06:01.860Z,5.4
2023-01-10T05:07:01.773Z,5.3
2023-01-10T05:08:01.667Z,5.4
2023-01-10T05:09:01.577Z,5.4
2023-01-10T05:10:01.442Z,5.4
2023-01-10T05:11:01.432Z,5.4
2023-01-10T05:12:01.355Z,5.4
2023-01-10T05:13:02.307Z,5.3
2023-01-10T05:14:02.264Z,5.3
2023-01-10T05:15:02.297Z,5.3
2023-01-10T05:16:02.193Z,5.3
2023-01-10T05:17:02.059Z,5.2
2023-01-10T05:18:02.012Z,5.3
2023-01-10T05:19:01.946Z,5.4
2023-01-10T05:20:01.940Z,5.4
2023-01-10T05:21:01.850Z,5.4
2023-01-10T05:22:01.754Z,5.4
2023-01-10T05:23:01.676Z,5.3
2023-01-10T05:24:01.565Z,5.3
2023-01-10T05:25:01.488Z,5.3
2023-01-10T05:26:01.402Z,5.3
2023-01-10T05:27:01.351Z,5.3
2023-01-10T05:28:02.296Z,5.3
2023-01-10T05:29:02.212Z,5.3
2023-01-10T05:30:02.180Z,5.3
2023-01-10T05:31:02.107Z,5.3
2023-01-10T05:32:01.891Z,5.3
2023-01-10T05:33:01.846Z,5.3
2023-01-10T05:34:01.748Z,5.3
2023-01-10T05:35:01.665Z,5.2
2023-01-10T05:36:01.539Z,5.2
2023-01-10T05:37:01.542Z,5.3
2023-01-10T05:38:01.432Z,5.3
2023-01-10T05:39:01.408Z,5.4
2023-01-10T05:40:01.398Z,5.3
2023-01-10T05:41:01.367Z,5.3
2023-01-10T05:42:02.326Z,5.2
2023-01-10T05:43:02.238Z,5.2
2023-01-10T05:44:02.218Z,5.2
2023-01-10T05:45:02.109Z,5.3
2023-01-10T05:46:02.120Z,5.3
2023-01-10T05:47:02.064Z,5.3
2023-01-10T05:48:02.025Z,5.2
2023-01-10T05:49:01.961Z,5.2
2023-01-10T05:50:01.876Z,5.3
2023-01-10T05:51:01.760Z,5.3
2023-01-10T05:52:01.779Z,5.2
2023-01-10T05:53:01.652Z,5.2
2023-01-10T05:54:01.704Z,5.2
2023-01-10T05:55:01.500Z,5.3
2023-01-10T05:56:01.560Z,5.3
2023-01-10T05:57:01.373Z,5.2
2023-01-10T05:58:01.424Z,5.2
2023-01-10T05:59:11.744Z,5.2
2023-01-10T06:00:03.654Z,5.3
2023-01-10T06:01:01.948Z,5.2
2023-01-10T06:02:01.917Z,5.1
2023-01-10T06:03:01.771Z,5.2
2023-01-10T06:04:01.818Z,5.2
2023-01-10T06:05:01.800Z,5.2
2023-01-10T06:06:01.616Z,5.2
2023-01-10T06:07:01.599Z,5.2
2023-01-10T06:08:01.414Z,5.1
2023-01-10T06:09:01.431Z,5.2
2023-01-10T06:10:02.406Z,5.2
2023-01-10T06:11:02.225Z,5.2
2023-01-10T06:12:02.292Z,5.2
2023-01-10T06:13:02.114Z,5.2
2023-01-10T06:14:02.162Z,5.1
2023-01-10T06:15:02.045Z,5.1
2023-01-10T06:16:02.016Z,5.1
2023-01-10T06:17:02.269Z,5.1
2023-01-10T06:18:02.290Z,5.1
2023-01-10T06:19:02.147Z,5.1
2023-01-10T06:20:02.211Z,5.1
2023-01-10T06:21:02.014Z,5.1
2023-01-10T06:22:02.084Z,5.1
2023-01-10T06:23:01.851Z,5.1
2023-01-10T06:24:01.779Z,5.1
2023-01-10T06:25:02.584Z,5.1
2023-01-10T06:26:01.419Z,5.2
2023-01-10T06:27:01.431Z,5.1
2023-01-10T06:28:02.331Z,5.2
2023-01-10T06:29:02.209Z,5.1
2023-01-10T06:30:02.266Z,5.1
2023-01-10T06:31:02.146Z,5.1
2023-01-10T06:32:02.124Z,5.2
2023-01-10T06:33:02.266Z,5.2
2023-01-10T06:34:02.047Z,5.2
2023-01-10T06:35:02.104Z,5.2
2023-01-10T06:36:01.941Z,5.2
2023-01-10T06:37:01.852Z,5.1
2023-01-10T06:38:01.845Z,5.1
2023-01-10T06:39:01.744Z,5.1
2023-01-10T06:40:01.775Z,5
2023-01-10T06:41:01.604Z,5
2023-01-10T06:42:01.545Z,5
2023-01-10T06:43:01.415Z,5
2023-01-10T06:44:01.462Z,5
2023-01-10T06:45:02.393Z,5.1
2023-01-10T06:46:02.240Z,5.1
2023-01-10T06:47:01.351Z,5.1
2023-01-10T06:48:02.395Z,5.1
2023-01-10T06:49:01.612Z,5.1
2023-01-10T06:50:01.624Z,5.1
2023-01-10T06:51:01.414Z,5.1
2023-01-10T06:52:01.440Z,5.1
2023-01-10T06:53:02.409Z,5.1
2023-01-10T06:54:02.223Z,5.1
2023-01-10T06:55:02.274Z,5.2
2023-01-10T06:56:02.119Z,5.1
2023-01-10T06:57:02.177Z,5.1
2023-01-10T06:58:02.035Z,5.1
2023-01-10T06:59:02.017Z,5.1
2023-01-10T07:00:01.926Z,5.1
2023-01-10T07:01:01.910Z,5.1
2023-01-10T07:02:02.112Z,5.1
2023-01-10T07:03:01.477Z,5.1
2023-01-10T07:04:02.506Z,5.2
2023-01-10T07:05:01.512Z,5.2
2023-01-10T07:06:01.470Z,5.1
2023-01-10T07:07:01.387Z,5.1
2023-01-10T07:08:02.373Z,5.1
2023-01-10T07:09:02.203Z,5.1
2023-01-10T07:10:02.362Z,5.1
2023-01-10T07:11:02.223Z,5.1
2023-01-10T07:12:02.215Z,5.1
2023-01-10T07:13:02.099Z,5.1
2023-01-10T07:14:02.154Z,5.1
2023-01-10T07:15:02.005Z,5.1
2023-01-10T07:16:01.970Z,5.1
2023-01-10T07:17:01.387Z,5.1
2023-01-10T07:18:01.440Z,5.1
2023-01-10T07:19:02.348Z,5.1
2023-01-10T07:20:02.239Z,5.1
2023-01-10T07:21:02.260Z,5.1
2023-01-10T07:22:02.112Z,5.1
2023-01-10T07:23:01.770Z,5.1
2023-01-10T07:24:02.723Z,5.1
2023-01-10T07:25:01.682Z,5.1
2023-01-10T07:26:01.684Z,5.1
2023-01-10T07:27:01.474Z,5.1
2023-01-10T07:28:01.501Z,5.1
2023-01-10T07:29:01.392Z,5.1
2023-01-10T07:30:02.431Z,5.2
2023-01-10T07:31:02.302Z,5.2
2023-01-10T07:32:01.432Z,5.2
2023-01-10T07:33:01.464Z,5.1
2023-01-10T07:34:02.414Z,5.2
2023-01-10T07:35:02.249Z,5.1
2023-01-10T07:36:02.275Z,5.2
2023-01-10T07:37:02.133Z,5.2
2023-01-10T07:38:02.181Z,5.2
2023-01-10T07:39:01.992Z,5.2
2023-01-10T07:40:02.029Z,5.2
2023-01-10T07:41:01.820Z,5.2
2023-01-10T07:42:01.778Z,5.2
2023-01-10T07:43:01.836Z,5.2
2023-01-10T07:44:01.619Z,5.1
2023-01-10T07:45:01.635Z,5.1
2023-01-10T07:46:01.503Z,5.2
2023-01-10T07:47:01.600Z,5.1
2023-01-10T07:48:01.661Z,5.1
2023-01-10T07:49:01.439Z,5.1
2023-01-10T07:50:01.502Z,5.1
2023-01-10T07:51:01.311Z,5.1
2023-01-10T07:52:02.367Z,5.1
2023-01-10T07:53:02.204Z,5.1
2023-01-10T07:54:02.265Z,5.1
2023-01-10T07:55:02.124Z,5
2023-01-10T07:56:02.331Z,5.1
2023-01-10T07:57:02.162Z,5
2023-01-10T07:58:02.213Z,5
2023-01-10T07:59:02.056Z,5.1
2023-01-10T08:00:02.067Z,5.1
2023-01-10T08:01:01.976Z,5.1
2023-01-10T08:02:01.820Z,5.1
2023-01-10T08:03:02.064Z,5.1
2023-01-10T08:04:01.409Z,5
2023-01-10T08:05:02.372Z,5.1
2023-01-10T08:06:02.288Z,5.1
2023-01-10T08:07:02.170Z,5.1
2023-01-10T08:08:02.060Z,5.1
2023-01-10T08:09:01.998Z,5
2023-01-10T08:10:01.930Z,5.1
2023-01-10T08:11:01.880Z,5.1
2023-01-10T08:12:01.835Z,5.1
2023-01-10T08:13:13.307Z,5.1
2023-01-10T08:14:01.986Z,5.1
2023-01-10T08:15:01.979Z,5.1
2023-01-10T08:16:01.891Z,5.2
2023-01-10T08:17:01.800Z,5.2
2023-01-10T08:18:04.153Z,5.2
2023-01-10T08:19:01.636Z,5.1
2023-01-10T08:20:01.677Z,5.2
2023-01-10T08:21:01.494Z,5.2
2023-01-10T08:22:01.447Z,5.1
2023-01-10T08:23:01.329Z,5.2
2023-01-10T08:24:02.377Z,5.2
2023-01-10T08:25:02.215Z,5.3
2023-01-10T08:26:02.265Z,5.2
2023-01-10T08:27:02.089Z,5.2
2023-01-10T08:28:02.086Z,5.2
2023-01-10T08:29:01.953Z,5.2
2023-01-10T08:30:01.885Z,5.2
2023-01-10T08:31:02.053Z,5.3
2023-01-10T08:32:01.833Z,5.2
2023-01-10T08:33:01.732Z,5.3
2023-01-10T08:34:01.813Z,5.2
2023-01-10T08:35:01.636Z,5.2
2023-01-10T08:36:01.571Z,5.2
2023-01-10T08:37:01.440Z,5.2
2023-01-10T08:38:01.439Z,5.2
2023-01-10T08:39:01.339Z,5.2
2023-01-10T08:40:02.326Z,5.3
2023-01-10T08:41:02.227Z,5.2
2023-01-10T08:42:02.269Z,5.2
2023-01-10T08:43:02.136Z,5.2
2023-01-10T08:44:02.095Z,5.2
2023-01-10T08:45:01.932Z,5.3
2023-01-10T08:46:01.805Z,5.2
2023-01-10T08:47:02.094Z,5.2
2023-01-10T08:48:02.156Z,5.1
2023-01-10T08:49:02.116Z,5.2
2023-01-10T08:50:02.054Z,5.2
2023-01-10T08:51:02.115Z,5.2
2023-01-10T08:52:01.900Z,5.2
2023-01-10T08:53:01.838Z,5.2
2023-01-10T08:54:01.867Z,5.3
2023-01-10T08:55:01.709Z,5.3
2023-01-10T08:56:03.168Z,5.3
2023-01-10T08:57:02.309Z,5.3
2023-01-10T08:58:02.172Z,5.2
2023-01-10T08:59:02.212Z,5.3
2023-01-10T09:00:02.060Z,5.2
2023-01-10T09:01:02.487Z,5.3
2023-01-10T09:02:01.912Z,5.3
2023-01-10T09:03:02.000Z,5.3
2023-01-10T09:04:01.977Z,5.3
2023-01-10T09:05:01.924Z,5.3
2023-01-10T09:06:01.902Z,5.3
2023-01-10T09:07:01.750Z,5.3
2023-01-10T09:08:01.709Z,5.3
2023-01-10T09:09:01.730Z,5.4
2023-01-10T09:10:01.507Z,5.3
2023-01-10T09:11:01.532Z,5.3
2023-01-10T09:12:01.371Z,5.3
2023-01-10T09:13:02.395Z,5.3
2023-01-10T09:14:02.202Z,5.3
2023-01-10T09:15:02.249Z,5.4
2023-01-10T09:16:02.133Z,5.3
2023-01-10T09:17:02.206Z,5.3
2023-01-10T09:18:02.258Z,5.3
2023-01-10T09:19:02.090Z,5.3
2023-01-10T09:20:02.157Z,5.3
2023-01-10T09:21:01.964Z,5.3
2023-01-10T09:22:01.932Z,5.4
2023-01-10T09:23:01.915Z,5.4
2023-01-10T09:24:01.797Z,5.4
2023-01-10T09:25:01.725Z,5.4
2023-01-10T09:26:01.766Z,5.4
2023-01-10T09:27:01.557Z,5.4
2023-01-10T09:28:01.578Z,5.4
2023-01-10T09:29:01.381Z,5.3
2023-01-10T09:30:01.440Z,5.3
2023-01-10T09:31:02.448Z,5.3
2023-01-10T09:32:01.371Z,5.3
2023-01-10T09:33:01.389Z,5.3
2023-01-10T09:34:02.392Z,5.4
2023-01-10T09:35:02.240Z,5.4
2023-01-10T09:36:02.273Z,5.4
2023-01-10T09:37:02.102Z,5.4
2023-01-10T09:38:02.071Z,5.4
2023-01-10T09:39:01.917Z,5.4
2023-01-10T09:40:01.857Z,5.4
2023-01-10T09:41:01.840Z,5.4
2023-01-10T09:42:01.621Z,5.4
2023-01-10T09:43:01.664Z,5.4
2023-01-10T09:44:01.607Z,5.4
2023-01-10T09:45:01.499Z,5.4
2023-01-10T09:46:01.394Z,5.4
2023-01-10T09:47:06.169Z,5.4
2023-01-10T09:48:01.711Z,5.4
2023-01-10T09:49:01.714Z,5.4
2023-01-10T09:50:01.496Z,5.4
2023-01-10T09:51:01.466Z,5.4
2023-01-10T09:52:01.463Z,5.4
2023-01-10T09:53:02.400Z,5.4
2023-01-10T09:54:10.966Z,5.4
2023-01-10T09:55:01.646Z,5.4
2023-01-10T09:56:01.690Z,5.4
2023-01-10T09:57:01.494Z,5.4
2023-01-10T09:58:01.514Z,5.4
2023-01-10T09:59:01.361Z,5.4
2023-01-10T10:00:02.414Z,5.4
2023-01-10T10:01:02.346Z,5.4
2023-01-10T10:02:02.182Z,5.4
2023-01-10T10:03:02.269Z,5.4
2023-01-10T10:04:02.223Z,5.4
2023-01-10T10:05:02.245Z,5.4
2023-01-10T10:06:11.478Z,5.4
2023-01-10T10:07:01.338Z,5.4
2023-01-10T10:08:02.380Z,5.4
2023-01-10T10:09:04.830Z,5.3
2023-01-10T10:10:01.663Z,5.4
2023-01-10T10:11:01.664Z,5.4
2023-01-10T10:12:01.454Z,5.4
2023-01-10T10:13:01.474Z,5.3
2023-01-10T10:14:02.398Z,5.4
2023-01-10T10:15:02.285Z,5.3
2023-01-10T10:16:02.229Z,5.4
2023-01-10T10:17:02.306Z,5.4
2023-01-10T10:18:02.348Z,5.4
2023-01-10T10:19:02.213Z,5.4
2023-01-10T10:20:02.194Z,5.4
2023-01-10T10:21:02.109Z,5.4
2023-01-10T10:22:02.101Z,5.4
2023-01-10T10:23:01.905Z,5.3
2023-01-10T10:24:01.832Z,5.3
2023-01-10T10:25:01.834Z,5.3
2023-01-10T10:26:01.722Z,5.3
2023-01-10T10:27:01.404Z,5.3
2023-01-10T10:28:01.437Z,5.4
2023-01-10T10:29:02.377Z,5.3
2023-01-10T10:30:02.180Z,5.3
2023-01-10T10:31:02.218Z,5.4
2023-01-10T10:32:02.081Z,5.4
2023-01-10T10:33:02.046Z,5.4
2023-01-10T10:34:01.948Z,5.4
2023-01-10T10:35:01.871Z,5.4
2023-01-10T10:36:01.873Z,5.4
2023-01-10T10:37:01.747Z,5.4
2023-01-10T10:38:01.587Z,5.4
2023-01-10T10:39:01.645Z,5.4
2023-01-10T10:40:01.471Z,5.4
2023-01-10T10:41:01.526Z,5.4
2023-01-10T10:42:01.337Z,5.4
2023-01-10T10:43:02.384Z,5.4
2023-01-10T10:44:02.202Z,5.4
2023-01-10T10:45:02.269Z,5.4
2023-01-10T10:46:02.129Z,5.4
2023-01-10T10:47:02.147Z,5.4
2023-01-10T10:48:02.207Z,5.4
2023-01-10T10:49:02.053Z,5.5
2023-01-10T10:50:02.011Z,5.5
2023-01-10T10:51:01.865Z,5.5
2023-01-10T10:52:01.822Z,5.5
2023-01-10T10:53:01.843Z,5.5
2023-01-10T10:54:01.634Z,5.5
2023-01-10T10:55:01.645Z,5.4
2023-01-10T10:56:01.423Z,5.4
2023-01-10T10:57:01.457Z,5.4
2023-01-10T10:58:02.362Z,5.5
2023-01-10T10:59:02.222Z,5.5
2023-01-10T11:00:02.241Z,5.4
2023-01-10T11:01:02.220Z,5.5
2023-01-10T11:02:01.709Z,5.5
2023-01-10T11:03:01.965Z,5.5
2023-01-10T11:04:01.812Z,5.5
2023-01-10T11:05:01.734Z,5.5
2023-01-10T11:06:01.776Z,5.5
2023-01-10T11:07:01.638Z,5.5
2023-01-10T11:08:01.654Z,5.5
2023-01-10T11:09:01.428Z,5.5
2023-01-10T11:10:01.445Z,5.4
2023-01-10T11:11:02.362Z,5.4
2023-01-10T11:12:02.230Z,5.5
2023-01-10T11:13:02.266Z,5.5
2023-01-10T11:14:02.105Z,5.5
2023-01-10T11:15:02.167Z,5.4
2023-01-10T11:16:02.099Z,5.5
2023-01-10T11:17:01.882Z,5.5
2023-01-10T11:18:01.923Z,5.5
2023-01-10T11:19:01.770Z,5.5
2023-01-10T11:20:01.722Z,5.5
2023-01-10T11:21:01.709Z,5.6
2023-01-10T11:22:01.516Z,5.6
2023-01-10T11:23:01.533Z,5.5
2023-01-10T11:24:01.363Z,5.5
2023-01-10T11:25:02.409Z,5.5
2023-01-10T11:26:02.232Z,5.5
2023-01-10T11:27:02.287Z,5.5
2023-01-10T11:28:02.154Z,5.5
2023-01-10T11:29:02.176Z,5.5
2023-01-10T11:30:02.057Z,5.5
2023-01-10T11:31:02.073Z,5.5
2023-01-10T11:32:01.709Z,5.6
2023-01-10T11:33:01.799Z,5.5
2023-01-10T11:34:01.672Z,5.6
2023-01-10T11:35:01.550Z,5.5
2023-01-10T11:36:01.552Z,5.6
2023-01-10T11:37:01.327Z,5.6
2023-01-10T11:38:01.420Z,5.6
2023-01-10T11:39:02.345Z,5.5
2023-01-10T11:40:02.175Z,5.5
2023-01-10T11:41:02.174Z,5.6
2023-01-10T11:42:01.970Z,5.5
2023-01-10T11:43:01.991Z,5.6
2023-01-10T11:44:01.853Z,5.5
2023-01-10T11:45:01.779Z,5.4
2023-01-10T11:46:01.871Z,5.5
2023-01-10T11:47:01.646Z,5.4
2023-01-10T11:48:01.637Z,5.5
2023-01-10T11:49:07.048Z,5.4
2023-01-10T11:50:01.472Z,5.4
2023-01-10T11:51:01.817Z,5.4
2023-01-10T11:52:01.556Z,5.4
2023-01-10T11:53:01.498Z,5.5
2023-01-10T11:54:01.364Z,5.5
2023-01-10T11:55:01.338Z,5.5
2023-01-10T11:56:02.322Z,5.5
2023-01-10T11:57:02.149Z,5.4
2023-01-10T11:58:02.143Z,5.3
2023-01-10T11:59:02.022Z,5.4
2023-01-10T12:00:02.086Z,5.3
2023-01-10T12:01:02.027Z,5.4
2023-01-10T12:02:01.990Z,5.4
2023-01-10T12:03:01.953Z,5.3
2023-01-10T12:04:01.797Z,5.4
2023-01-10T12:05:01.760Z,5.4
2023-01-10T12:06:01.914Z,5.4
2023-01-10T12:07:01.751Z,5.5
2023-01-10T12:08:01.613Z,5.5
2023-01-10T12:09:01.595Z,5.5
2023-01-10T12:10:01.459Z,5.5
2023-01-10T12:11:01.435Z,5.5
2023-01-10T12:12:02.388Z,5.5
2023-01-10T12:13:02.225Z,5.5
2023-01-10T12:14:02.277Z,5.5
2023-01-10T12:15:02.127Z,5.4
2023-01-10T12:16:02.184Z,5.4
2023-01-10T12:17:01.890Z,5.4
2023-01-10T12:18:01.991Z,5.4
2023-01-10T12:19:01.797Z,5.5
2023-01-10T12:20:01.719Z,5.5
2023-01-10T12:21:01.709Z,5.5
2023-01-10T12:22:01.471Z,5.5
2023-01-10T12:23:01.498Z,5.5
2023-01-10T12:24:01.401Z,5.5
2023-01-10T12:25:02.395Z,5.4
2023-01-10T12:26:11.275Z,5.4
2023-01-10T12:27:01.961Z,5.4
2023-01-10T12:28:02.048Z,5.3
2023-01-10T12:29:01.828Z,5.4
2023-01-10T12:30:01.768Z,5.4
2023-01-10T12:31:01.847Z,5.4
2023-01-10T12:32:01.581Z,5.3
2023-01-10T12:33:01.559Z,5.4
2023-01-10T12:34:01.416Z,5.4
2023-01-10T12:35:01.417Z,5.4
2023-01-10T12:36:02.361Z,5.4
2023-01-10T12:37:02.187Z,5.4
2023-01-10T12:38:02.311Z,5.4
2023-01-10T12:39:02.160Z,5.4
2023-01-10T12:40:02.162Z,5.4
2023-01-10T12:41:01.947Z,5.4
2023-01-10T12:42:01.905Z,5.4
2023-01-10T12:43:01.881Z,5.3
2023-01-10T12:44:01.735Z,5.4
2023-01-10T12:45:01.688Z,5.3
2023-01-10T12:46:09.595Z,5.4
2023-01-10T12:47:06.853Z,5.4
2023-01-10T12:48:02.015Z,5.3
2023-01-10T12:49:02.030Z,5.3
2023-01-10T12:50:01.862Z,5.3
2023-01-10T12:51:01.813Z,5.3
2023-01-10T12:52:01.818Z,5.3
2023-01-10T12:53:01.625Z,5.3
2023-01-10T12:54:01.627Z,5.3
2023-01-10T12:55:01.437Z,5.3
2023-01-10T12:56:01.450Z,5.3
2023-01-10T12:57:02.419Z,5.3
2023-01-10T12:58:02.245Z,5.4
2023-01-10T12:59:02.309Z,5.4
2023-01-10T13:00:02.146Z,5.3
2023-01-10T13:01:02.288Z,5.3
2023-01-10T13:02:02.295Z,5.3
2023-01-10T13:03:01.484Z,5.4
2023-01-10T13:04:01.342Z,5.4
2023-01-10T13:05:02.397Z,5.3
2023-01-10T13:06:02.163Z,5.4
2023-01-10T13:07:02.232Z,5.4
2023-01-10T13:08:02.093Z,5.3
2023-01-10T13:09:02.099Z,5.4
2023-01-10T13:10:02.059Z,5.4
2023-01-10T13:11:01.926Z,5.3
2023-01-10T13:12:01.969Z,5.2
2023-01-10T13:13:01.829Z,5.3
2023-01-10T13:14:01.737Z,5.3
2023-01-10T13:15:01.636Z,5.2
2023-01-10T13:16:01.503Z,5.3
2023-01-10T13:17:01.514Z,5.3
2023-01-10T13:18:01.500Z,5.2
2023-01-10T13:19:01.301Z,5.2
2023-01-10T13:20:02.349Z,5.3
2023-01-10T13:21:02.151Z,5.3
2023-01-10T13:22:02.206Z,5.3
2023-01-10T13:23:02.031Z,5.3
2023-01-10T13:24:02.051Z,5.3
2023-01-10T13:25:01.829Z,5.3
2023-01-10T13:26:01.842Z,5.3
2023-01-10T13:27:01.851Z,5.3
2023-01-10T13:28:01.656Z,5.3
2023-01-10T13:29:01.690Z,5.3
2023-01-10T13:30:01.556Z,5.2
2023-01-10T13:31:01.560Z,5.2
2023-01-10T13:32:01.348Z,5.2
2023-01-10T13:33:02.395Z,5.2
2023-01-10T13:34:02.238Z,5.3
2023-01-10T13:35:02.288Z,5.3
2023-01-10T13:36:02.139Z,5.3
2023-01-10T13:37:02.133Z,5.2
2023-01-10T13:38:01.993Z,5.3
2023-01-10T13:39:01.948Z,5.3
2023-01-10T13:40:01.900Z,5.3
2023-01-10T13:41:01.799Z,5.3
2023-01-10T13:42:01.744Z,5.3
2023-01-10T13:43:01.732Z,5.3
2023-01-10T13:44:01.555Z,5.3
2023-01-10T13:45:01.615Z,5.3
2023-01-10T13:46:01.468Z,5.3
2023-01-10T13:47:01.388Z,5.3